Terminal Aerodrome Forecast
Issued by NWS

Home | Current Version | Previous Version | Text Only | Print | Product List | Glossary On
Versions: 1 2 3 4 5 6 7 8 9 10 11 12 13 14 15 16 17 18 19 20 21 22 23
000
FTUS43 KABR 111000 AAD
TAFMBG
TAF AMD
KMBG 111002Z 1110/1206 VRB03KT P6SM SKC
      TEMPO 1110/1112 4SM BR=

USA.gov is the U.S. government's official web portal to all federal, state and local government web resources and services.